KBLV

Scott AFB / Midamerica Airport

Belleville, Illinois, USA
METAR KBLV 191521Z AUTO 09004KT 10SM FEW210 27/22 A2996 RMK AO2 RAB17E21 SLP145 $
Observed Flight Rules
Aug-19 @ 15:21 UTC (17 minutes ago) Visual Flight Rules
Wind Visibility Clouds
90° at 4 knots 10 miles
  • Few at 21,000' AGL
Temperatures Readings
Current 27°C / 81°F
Dewpoint 22°C / 72°F
Humidity 74%
Altimeter 29.96" Hg
Pressure 1014.5 hPa
Elevation 138
METAR KBLV 191521Z AUTO 09004KT 10SM FEW210 27/22 A2996 RMK AO2 RAB17E21 SLP145 $
Observed Flight Rules
Aug-19 @ 15:21 UTC
(17 minutes ago)
VFR
Wind Visibility
90° at 4 knots 10 miles
Clouds
  • Few at 21,000' AGL
Temperature Dewpoint
27°C / 81°F 22°C / 72°F
Humidity Altimeter Pressure
74% 29.96" Hg 1014.5 hPa